Sea Thames — V2BV1 — position and weather

sailwx.info

Track history (hours):
 
Tides and Currents Weather Stations Pressure Air Temp Water Temp Dewpoint Dewpoint Depression Visibility Wind Speed Wind Dir Waves Ship Positions

Sea Thames

Last reported at 2014-Oct-19 15:24 UTC. Time now 2014-Oct-21 21:34 UTC.
Position N 53°42' W 000°44'.

Length 87 m; draft 3.4 m.

Type: Cargo ship. MMSI: 304933000.

Date/timePositionNaut miles runAvg speedWind from/ knotsBaromVisibWave heightAir tempDewpointWater temp
2014-Oct-19 15:24N 53°42' W 000°44'4 4.3
2014-Oct-19 14:32N 53°43' W 000°38'8 8.4
2014-Oct-19 13:34N 53°42' W 000°24'8 8.5
2014-Oct-19 12:34N 53°39' W 000°11'1110.6
2014-Oct-19 11:34N 53°34' E 000°05'7 6.6
2014-Oct-19 10:29N 53°33' E 000°17'5 4.9
2014-Oct-19 09:27N 53°33' E 000°26'40 6.3
2014-Oct-19 03:06N 53°10' E 001°21'4 7.2
2014-Oct-19 02:33N 53°07' E 001°26'7 7.1
2014-Oct-19 01:33N 53°03' E 001°36'7 6.7
2014-Oct-19 00:33N 53°00' E 001°46'96 7.2
2014-Oct-18 11:09N 51°42' E 003°17'710.1
2014-Oct-18 10:27N 51°36' E 003°23'910.3
2014-Oct-18 09:33N 51°28' E 003°31'8 8.0
2014-Oct-18 08:34N 51°25' E 003°42'7 7.3
2014-Oct-18 07:33N 51°21' E 003°52'7 7.1
2014-Oct-18 06:34N 51°26' E 004°00'7 6.6
2014-Oct-18 05:33N 51°23' E 004°09'7 6.9
2014-Oct-18 04:33N 51°18' E 004°17'3 2.7
2014-Oct-18 03:33N 51°16' E 004°20'3 2.5
2014-Oct-18 02:33N 51°16' E 004°24'2 2.3
2014-Oct-18 01:33N 51°14' E 004°27'4 3.1
2014-Oct-18 00:24N 51°13' E 004°33'  
2014-Oct-15 00:33N 51°14' E 004°28'2 2.2
2014-Oct-14 23:31N 51°15' E 004°25'0 0.0
2014-Oct-14 22:31N 51°15' E 004°25'0 0.0
2014-Oct-14 21:31N 51°15' E 004°25'0 0.1
2014-Oct-14 20:33N 51°15' E 004°25'5 4.4
2014-Oct-14 19:21N 51°19' E 004°19'2 2.1
2014-Oct-14 18:34N 51°21' E 004°17'4 4.4
2014-Oct-14 17:33N 51°24' E 004°12'8 7.6
2014-Oct-14 16:33N 51°26' E 004°00'1110.7
2014-Oct-14 15:33N 51°22' E 003°45'1110.9
2014-Oct-14 14:33N 51°28' E 003°30'1210.5
2014-Oct-14 13:22N 51°39' E 003°19'8 9.3
2014-Oct-14 12:33N 51°45' E 003°14'81 7.9
2014-Oct-14 02:18N 52°53' E 002°02'7 8.9
2014-Oct-14 01:33N 52°56' E 001°52'1010.1
2014-Oct-14 00:33N 53°02' E 001°38'1211.0
2014-Oct-13 23:30N 53°09' E 001°22'4210.1
2014-Oct-13 19:22N 53°38' E 000°33'7 9.2
2014-Oct-13 18:33N 53°44' E 000°24'10 9.7
2014-Oct-13 17:33N 53°53' E 000°18'9 9.4
2014-Oct-13 16:34N 54°01' E 000°12'9 9.1
2014-Oct-13 15:33N 54°10' E 000°12'8 8.3
2014-Oct-13 14:33N 54°19' E 000°08'9 8.5
2014-Oct-13 13:34N 54°27' E 000°06'8 8.3
2014-Oct-13 12:33N 54°35' E 000°04'145 8.9
2014-Oct-12 20:12N 56°28' W 002°37'25 0.9
2014-Oct-11 16:33N 56°22' W 003°20'19 7.7
2014-Oct-11 14:08N 56°27' W 002°48'7 4.7
2014-Oct-11 12:33N 56°28' W 002°35'54 4.9
2014-Oct-11 01:33N 57°17' W 001°51'1111.0
2014-Oct-11 00:33N 57°27' W 001°44'1111.0
2014-Oct-10 23:33N 57°38' W 001°44'10 9.7
2014-Oct-10 22:33N 57°47' W 001°52'64 7.9
2014-Oct-10 14:33N 58°39' W 002°59'5 4.8
2014-Oct-10 13:33N 58°42' W 003°06'18 8.8
2014-Oct-10 11:33N 58°42' W 003°40'  
Track history (hours):
 
Tides and Currents Weather Stations Pressure Air Temp Water Temp Dewpoint Dewpoint Depression Visibility Wind Speed Wind Dir Waves Ship Positions

Sea Thames

Last reported at 2014-Oct-19 15:24 UTC. Time now 2014-Oct-21 21:34 UTC.
Position N 53°42' W 000°44'.

Length 87 m; draft 3.4 m.

Type: Cargo ship. MMSI: 304933000.

Date/timePositionNaut miles runAvg speedWind from/ knotsBaromVisibWave heightAir tempDewpointWater temp
2014-Oct-19 15:24N 53°42' W 000°44'4 4.3
2014-Oct-19 14:32N 53°43' W 000°38'8 8.4
2014-Oct-19 13:34N 53°42' W 000°24'8 8.5
2014-Oct-19 12:34N 53°39' W 000°11'1110.6
2014-Oct-19 11:34N 53°34' E 000°05'7 6.6
2014-Oct-19 10:29N 53°33' E 000°17'5 4.9
2014-Oct-19 09:27N 53°33' E 000°26'40 6.3
2014-Oct-19 03:06N 53°10' E 001°21'4 7.2
2014-Oct-19 02:33N 53°07' E 001°26'7 7.1
2014-Oct-19 01:33N 53°03' E 001°36'7 6.7
2014-Oct-19 00:33N 53°00' E 001°46'96 7.2
2014-Oct-18 11:09N 51°42' E 003°17'710.1
2014-Oct-18 10:27N 51°36' E 003°23'910.3
2014-Oct-18 09:33N 51°28' E 003°31'8 8.0
2014-Oct-18 08:34N 51°25' E 003°42'7 7.3
2014-Oct-18 07:33N 51°21' E 003°52'7 7.1
2014-Oct-18 06:34N 51°26' E 004°00'7 6.6
2014-Oct-18 05:33N 51°23' E 004°09'7 6.9
2014-Oct-18 04:33N 51°18' E 004°17'3 2.7
2014-Oct-18 03:33N 51°16' E 004°20'3 2.5
2014-Oct-18 02:33N 51°16' E 004°24'2 2.3
2014-Oct-18 01:33N 51°14' E 004°27'4 3.1
2014-Oct-18 00:24N 51°13' E 004°33'  
2014-Oct-15 00:33N 51°14' E 004°28'2 2.2
2014-Oct-14 23:31N 51°15' E 004°25'0 0.0
2014-Oct-14 22:31N 51°15' E 004°25'0 0.0
2014-Oct-14 21:31N 51°15' E 004°25'0 0.1
2014-Oct-14 20:33N 51°15' E 004°25'5 4.4
2014-Oct-14 19:21N 51°19' E 004°19'2 2.1
2014-Oct-14 18:34N 51°21' E 004°17'4 4.4
2014-Oct-14 17:33N 51°24' E 004°12'8 7.6
2014-Oct-14 16:33N 51°26' E 004°00'1110.7
2014-Oct-14 15:33N 51°22' E 003°45'1110.9
2014-Oct-14 14:33N 51°28' E 003°30'1210.5
2014-Oct-14 13:22N 51°39' E 003°19'8 9.3
2014-Oct-14 12:33N 51°45' E 003°14'81 7.9
2014-Oct-14 02:18N 52°53' E 002°02'7 8.9
2014-Oct-14 01:33N 52°56' E 001°52'1010.1
2014-Oct-14 00:33N 53°02' E 001°38'1211.0
2014-Oct-13 23:30N 53°09' E 001°22'4210.1
2014-Oct-13 19:22N 53°38' E 000°33'7 9.2
2014-Oct-13 18:33N 53°44' E 000°24'10 9.7
2014-Oct-13 17:33N 53°53' E 000°18'9 9.4
2014-Oct-13 16:34N 54°01' E 000°12'9 9.1
2014-Oct-13 15:33N 54°10' E 000°12'8 8.3
2014-Oct-13 14:33N 54°19' E 000°08'9 8.5
2014-Oct-13 13:34N 54°27' E 000°06'8 8.3
2014-Oct-13 12:33N 54°35' E 000°04'145 8.9
2014-Oct-12 20:12N 56°28' W 002°37'25 0.9
2014-Oct-11 16:33N 56°22' W 003°20'19 7.7
2014-Oct-11 14:08N 56°27' W 002°48'7 4.7
2014-Oct-11 12:33N 56°28' W 002°35'54 4.9
2014-Oct-11 01:33N 57°17' W 001°51'1111.0
2014-Oct-11 00:33N 57°27' W 001°44'1111.0
2014-Oct-10 23:33N 57°38' W 001°44'10 9.7
2014-Oct-10 22:33N 57°47' W 001°52'64 7.9
2014-Oct-10 14:33N 58°39' W 002°59'5 4.8
2014-Oct-10 13:33N 58°42' W 003°06'18 8.8
2014-Oct-10 11:33N 58°42' W 003°40'  

Dump ship's entire track history